aviador You're here:

KGRI Decoded Metar

GRAND ISLAND in NE, USA
Report Time2018-01-17 08:53:00
UTC Time2018-01-17 09:17:49
Flight Rules vfr VFR
Wind210° at 10 kt
W.Decomp.*RWY 17: 8.4 kt HW 5.4 kt RCW
RWY 13: 2.9 kt HW 9.6 kt RCW
W.Rank210° ranks 17
Current wind is below 210° avg. (10.6)
Visibility9999 m
Phenomena:N/A
Clouds:N/A
Expected CloudBase > 1,600 ft AGL from Temp-Dew spread
CeilingNone
Temp-14°C (ISA -25)
Dew Point-18°C (72% RH)
AAT-21.1°C
QNH1033 hPa
Density Alt-1,998 ft
Elevation1,841 ft
Report Wrong Elevation
Raw Report
METAR KGRI 170853Z AUTO 21010KT 10SM CLR M14/M18 A3049 RMK AO2 SLP370
T11441178 56013=

Extra information for KGRI:More info

Metar Taf Metar & Taf Last 4 Metars F.Rules Stats Wind Profile Meteogram Temp Stats Airport Information Weather charts Add Link Nearby VenuesMetar ALERT Operation Metar Decoded Social comments

AIRNAV info for KGRI